KWHP/WHP METAR and TAF weather

Enter ICAO airport designator
Station Type Date Time Source
KWHP METAR 2019/12/07 04:00 UTC NOAA

KWHP 070400Z 00000KT 10SM OVC090 14/13 A3019


Station Type Date Time Source
KWHP Decoded METAR 2019/12/07 04:00 UTC NOAA

Los Angeles, Whiteman Airport, CA, United States (KWHP) 34-15N 118-24W
Dec 06, 2019 - 11:00 PM EST / 2019.12.07 0400 UTC
Wind: Calm:0
Visibility: 10 mile(s):0
Sky conditions: overcast
Temperature: 57 F (14 C)
Dew Point: 55 F (13 C)
Relative Humidity: 93%
Pressure (altimeter): 30.19 in. Hg (1022 hPa)
ob: KWHP 070400Z 00000KT 10SM OVC090 14/13 A3019
cycle: 4

Station Type Date Time Source
KWHP TAF UTC NOAA

Error!

Example: see airport list